createdAt,value
2017-06-13T00:02:28.228Z,100731
2017-06-13T00:04:56.447Z,100737
2017-06-13T00:07:24.688Z,100732
2017-06-13T00:09:53.736Z,100724
2017-06-13T00:12:21.906Z,100726
2017-06-13T00:14:50.121Z,100720
2017-06-13T00:17:18.294Z,100716
2017-06-13T00:19:46.464Z,100724
2017-06-13T00:22:14.680Z,100723
2017-06-13T00:24:42.875Z,100715
2017-06-13T00:27:11.059Z,100728
2017-06-13T00:29:39.254Z,100728
2017-06-13T00:32:07.412Z,100717
2017-06-13T00:34:35.675Z,100723
2017-06-13T00:37:03.853Z,100715
2017-06-13T00:39:32.042Z,100727
2017-06-13T00:42:01.532Z,100730
2017-06-13T00:44:29.892Z,100726
2017-06-13T00:46:59.157Z,100725
2017-06-13T00:49:27.742Z,100725
2017-06-13T00:51:56.773Z,100719
2017-06-13T00:54:25.004Z,100721
2017-06-13T00:56:54.787Z,100726
2017-06-13T00:59:23.279Z,100732
2017-06-13T01:01:51.811Z,100727
2017-06-13T01:04:20.236Z,100735
2017-06-13T01:06:48.412Z,100740
2017-06-13T01:09:16.754Z,100730
2017-06-13T01:11:45.043Z,100729
2017-06-13T01:14:13.312Z,100728
2017-06-13T01:16:41.504Z,100725
2017-06-13T01:19:09.962Z,100728
2017-06-13T01:21:38.915Z,100723
2017-06-13T01:24:07.226Z,100733
2017-06-13T01:26:35.484Z,100735
2017-06-13T01:29:04.143Z,100735
2017-06-13T01:31:32.459Z,100738
2017-06-13T01:34:00.681Z,100733
2017-06-13T01:36:28.860Z,100743
2017-06-13T01:38:57.159Z,100751
2017-06-13T01:41:25.615Z,100747
2017-06-13T01:43:53.808Z,100745
2017-06-13T01:46:23.498Z,100742
2017-06-13T01:48:51.710Z,100737
2017-06-13T01:51:20.143Z,100737
2017-06-13T01:53:49.099Z,100746
2017-06-13T01:56:17.258Z,100747
2017-06-13T01:58:45.531Z,100741
2017-06-13T02:01:13.740Z,100737
2017-06-13T02:03:41.928Z,100735
2017-06-13T02:06:10.128Z,100743
2017-06-13T02:08:38.359Z,100741
2017-06-13T02:11:06.553Z,100738
2017-06-13T02:13:35.511Z,100746
2017-06-13T02:16:03.730Z,100734
2017-06-13T02:18:31.897Z,100734
2017-06-13T02:21:00.101Z,100736
2017-06-13T02:23:28.280Z,100751
2017-06-13T02:25:56.469Z,100738
2017-06-13T02:28:24.683Z,100742
2017-06-13T02:30:52.874Z,100734
2017-06-13T02:33:21.056Z,100735
2017-06-13T02:35:49.320Z,100729
2017-06-13T02:38:17.553Z,100744
2017-06-13T02:40:45.765Z,100742
2017-06-13T02:43:13.998Z,100748
2017-06-13T02:45:42.248Z,100745
2017-06-13T02:48:10.519Z,100749
2017-06-13T02:50:38.734Z,100749
2017-06-13T02:53:06.920Z,100749
2017-06-13T02:55:35.856Z,100749
2017-06-13T02:58:04.064Z,100756
2017-06-13T03:00:32.248Z,100760
2017-06-13T03:03:00.434Z,100763
2017-06-13T03:05:28.648Z,100764
2017-06-13T03:07:56.875Z,100774
2017-06-13T03:10:25.041Z,100771
2017-06-13T03:12:53.255Z,100772
2017-06-13T03:15:21.575Z,100776
2017-06-13T03:17:49.791Z,100766
2017-06-13T03:20:17.975Z,100770
2017-06-13T03:22:46.148Z,100779
2017-06-13T03:25:14.573Z,100772
2017-06-13T03:27:42.941Z,100767
2017-06-13T03:30:11.110Z,100775
2017-06-13T03:32:39.282Z,100774
2017-06-13T03:35:07.572Z,100762
2017-06-13T03:37:35.855Z,100779
2017-06-13T03:40:04.036Z,100758
2017-06-13T03:42:32.428Z,100767
2017-06-13T03:45:00.572Z,100764
2017-06-13T03:47:28.747Z,100768
2017-06-13T03:49:56.953Z,100766
2017-06-13T03:52:25.195Z,100767
2017-06-13T03:54:53.404Z,100768
2017-06-13T03:57:21.615Z,100762
2017-06-13T03:59:49.799Z,100761
2017-06-13T04:02:18.007Z,100766
2017-06-13T04:04:46.216Z,100771
2017-06-13T04:07:14.426Z,100767
2017-06-13T04:09:42.716Z,100762
2017-06-13T04:12:11.549Z,100770
2017-06-13T04:14:40.290Z,100775
2017-06-13T04:17:08.491Z,100770
2017-06-13T04:19:36.692Z,100762
2017-06-13T04:22:04.907Z,100775
2017-06-13T04:24:33.509Z,100771
2017-06-13T04:27:01.906Z,100770
2017-06-13T04:29:30.163Z,100773
2017-06-13T04:31:59.711Z,100779
2017-06-13T04:34:28.061Z,100771
2017-06-13T04:36:56.972Z,100772
2017-06-13T04:39:25.209Z,100781
2017-06-13T04:41:54.166Z,100781
2017-06-13T04:44:22.369Z,100778
2017-06-13T04:46:51.327Z,100780
2017-06-13T04:49:19.543Z,100776
2017-06-13T04:51:47.716Z,100779
2017-06-13T04:54:15.915Z,100773
2017-06-13T04:56:44.242Z,100774
2017-06-13T04:59:12.483Z,100775
2017-06-13T05:01:40.691Z,100778
2017-06-13T05:04:08.935Z,100771
2017-06-13T05:06:37.207Z,100772
2017-06-13T05:09:05.377Z,100784
2017-06-13T05:11:33.578Z,100796
2017-06-13T05:14:01.743Z,100792
2017-06-13T05:16:29.964Z,100796
2017-06-13T05:18:58.155Z,100793
2017-06-13T05:21:26.392Z,100803
2017-06-13T05:23:54.591Z,100811
2017-06-13T05:26:22.774Z,100800
2017-06-13T05:28:50.944Z,100798
2017-06-13T05:31:19.172Z,100801
2017-06-13T05:33:47.372Z,100793
2017-06-13T05:36:15.781Z,100796
2017-06-13T05:38:44.068Z,100801
2017-06-13T05:41:12.243Z,100794
2017-06-13T05:43:40.468Z,100797
2017-06-13T05:46:08.654Z,100797
2017-06-13T05:48:36.830Z,100801
2017-06-13T05:51:05.063Z,100798
2017-06-13T05:53:33.283Z,100797
2017-06-13T05:56:01.538Z,100811
2017-06-13T05:58:29.756Z,100810
2017-06-13T06:00:57.927Z,100815
2017-06-13T06:03:26.107Z,100806
2017-06-13T06:05:54.555Z,100807
2017-06-13T06:08:22.771Z,100813
2017-06-13T06:10:50.961Z,100817
2017-06-13T06:13:19.171Z,100808
2017-06-13T06:15:50.455Z,100812
2017-06-13T06:18:19.372Z,100812
2017-06-13T06:20:49.395Z,100809
2017-06-13T06:23:18.513Z,100820
2017-06-13T06:25:46.719Z,100814
2017-06-13T06:28:14.965Z,100816
2017-06-13T06:30:43.155Z,100816
2017-06-13T11:16:27.567Z,100785
2017-06-13T11:18:56.608Z,100785
2017-06-13T11:21:24.759Z,100778
2017-06-13T11:23:52.935Z,100771
2017-06-13T11:26:21.116Z,100770
2017-06-13T11:28:49.349Z,100764
2017-06-13T11:31:17.527Z,100762
2017-06-13T11:33:45.659Z,100759
2017-06-13T11:36:13.865Z,100762
2017-06-13T11:38:42.041Z,100759
2017-06-13T11:41:10.210Z,100758
2017-06-13T11:43:38.422Z,100753
2017-06-13T11:46:06.591Z,100751
2017-06-13T11:48:34.847Z,100751
2017-06-13T11:51:03.158Z,100739
2017-06-13T11:53:31.331Z,100748
2017-06-13T11:55:59.550Z,100746
2017-06-13T11:58:27.705Z,100742
2017-06-13T12:00:55.881Z,100742
2017-06-13T12:03:24.090Z,100747
2017-06-13T12:05:52.246Z,100750
2017-06-13T12:08:20.398Z,100753
2017-06-13T12:10:48.595Z,100751
2017-06-13T12:13:16.755Z,100758
2017-06-13T12:15:44.914Z,100751
2017-06-13T12:18:13.167Z,100762
2017-06-13T12:20:41.361Z,100757
2017-06-13T12:23:09.568Z,100749
2017-06-13T12:25:37.765Z,100747
2017-06-13T12:28:05.905Z,100747
2017-06-13T12:30:34.058Z,100748
2017-06-13T12:33:02.227Z,100741
2017-06-13T12:35:30.398Z,100747
2017-06-13T12:37:58.625Z,100759
2017-06-13T12:40:26.781Z,100754
2017-06-13T12:42:54.950Z,100744
2017-06-13T12:45:23.126Z,100747
2017-06-13T12:47:51.295Z,100754
2017-06-13T12:50:19.480Z,100753
2017-06-13T12:52:47.641Z,100748
2017-06-13T12:55:15.789Z,100735
2017-06-13T12:57:44.086Z,100734
2017-06-13T13:00:13.033Z,100735
2017-06-13T13:02:41.212Z,100730
2017-06-13T13:05:09.378Z,100738
2017-06-13T13:07:37.577Z,100738
2017-06-13T13:10:05.737Z,100728
2017-06-13T13:12:33.906Z,100740
2017-06-13T13:15:02.224Z,100737
2017-06-13T13:17:30.404Z,100745
2017-06-13T13:19:58.565Z,100742
2017-06-13T13:22:26.845Z,100747
2017-06-13T13:24:55.005Z,100746
2017-06-13T13:27:23.155Z,100746
2017-06-13T13:29:51.363Z,100745
2017-06-13T13:32:19.518Z,100743
2017-06-13T13:34:47.708Z,100739
2017-06-13T13:37:15.891Z,100731
2017-06-13T13:39:44.034Z,100734
2017-06-13T13:42:12.292Z,100721
2017-06-13T13:44:40.622Z,100726
2017-06-13T13:47:08.803Z,100726
2017-06-13T13:49:37.142Z,100724
2017-06-13T13:52:05.300Z,100716
2017-06-13T13:54:33.467Z,100717
2017-06-13T13:57:01.658Z,100723
2017-06-13T13:59:29.850Z,100720
2017-06-13T14:01:58.014Z,100724
2017-06-13T14:04:26.237Z,100730
2017-06-13T14:06:54.530Z,100730
2017-06-13T14:09:22.710Z,100729
2017-06-13T14:11:50.865Z,100733
2017-06-13T14:14:19.044Z,100728
2017-06-13T14:16:47.207Z,100726
2017-06-13T14:19:15.429Z,100726
2017-06-13T14:21:43.663Z,100719
2017-06-13T14:24:11.847Z,100725
2017-06-13T14:26:40.009Z,100723
2017-06-13T14:29:08.215Z,100723
2017-06-13T14:31:36.373Z,100727
2017-06-13T14:34:04.571Z,100728
2017-06-13T14:36:32.816Z,100733
2017-06-13T14:39:01.006Z,100725
2017-06-13T14:41:29.192Z,100735
2017-06-13T14:43:57.552Z,100736
2017-06-13T14:46:25.743Z,100715
2017-06-13T14:48:53.933Z,100725
2017-06-13T14:51:22.093Z,100728
2017-06-13T14:53:50.267Z,100729
2017-06-13T14:56:18.439Z,100727
2017-06-13T14:58:47.387Z,100719
2017-06-13T15:01:15.625Z,100715
2017-06-13T15:03:43.792Z,100710
2017-06-13T15:06:11.952Z,100716
2017-06-13T15:08:40.186Z,100712
2017-06-13T15:11:08.359Z,100712
2017-06-13T15:13:36.531Z,100712
2017-06-13T15:16:04.759Z,100706
2017-06-13T15:18:32.947Z,100712
2017-06-13T15:21:01.150Z,100714
2017-06-13T15:23:29.356Z,100710
2017-06-13T15:25:57.522Z,100710
2017-06-13T15:28:25.719Z,100719
2017-06-13T15:30:53.894Z,100720
2017-06-13T15:33:22.066Z,100727
2017-06-13T15:35:50.292Z,100724
2017-06-13T15:38:18.457Z,100719
2017-06-13T15:40:46.712Z,100733
2017-06-13T15:43:14.934Z,100736
2017-06-13T15:45:43.155Z,100733
2017-06-13T15:48:11.334Z,100732
2017-06-13T15:50:39.571Z,100729
2017-06-13T15:53:07.739Z,100735
2017-06-13T15:55:36.670Z,100726
2017-06-13T15:58:04.922Z,100717
2017-06-13T16:00:33.069Z,100727
2017-06-13T16:03:01.245Z,100716
2017-06-13T16:05:30.282Z,100699
2017-06-13T16:07:58.427Z,100709
2017-06-13T16:10:26.617Z,100704
2017-06-13T16:12:54.856Z,100712
2017-06-13T16:15:23.815Z,100712
2017-06-13T16:17:51.987Z,100711
2017-06-13T16:20:20.213Z,100698
2017-06-13T16:22:48.388Z,100701
2017-06-13T16:25:16.562Z,100705
2017-06-13T16:27:44.770Z,100700
2017-06-13T16:30:13.142Z,100701
2017-06-13T16:32:41.305Z,100702
2017-06-13T16:35:09.520Z,100704
2017-06-13T16:37:37.705Z,100699
2017-06-13T16:40:05.862Z,100707
2017-06-13T16:42:34.040Z,100696
2017-06-13T16:45:02.416Z,100689
2017-06-13T16:47:30.556Z,100689
2017-06-13T16:49:58.773Z,100691
2017-06-13T16:52:26.889Z,100695
2017-06-13T16:54:55.082Z,100695
2017-06-13T16:57:23.266Z,100686
2017-06-13T16:59:51.448Z,100678
2017-06-13T17:02:19.634Z,100679
2017-06-13T17:04:47.933Z,100681
2017-06-13T17:07:16.905Z,100671
2017-06-13T17:09:45.076Z,100677
2017-06-13T17:12:13.271Z,100680
2017-06-13T17:14:41.442Z,100683
2017-06-13T17:17:09.724Z,100677
2017-06-13T17:19:37.940Z,100681
2017-06-13T17:22:06.174Z,100692
2017-06-13T17:24:34.346Z,100681
2017-06-13T17:27:02.504Z,100680
2017-06-13T17:29:30.694Z,100684
2017-06-13T17:31:58.899Z,100686
2017-06-13T17:34:27.111Z,100684
2017-06-13T17:36:55.282Z,100689
2017-06-13T17:39:23.456Z,100686
2017-06-13T17:41:51.657Z,100685
2017-06-13T17:44:19.826Z,100684
2017-06-13T17:46:48.019Z,100687
2017-06-13T17:49:16.215Z,100675
2017-06-13T17:51:44.378Z,100675
2017-06-13T17:54:12.542Z,100684
2017-06-13T17:56:40.752Z,100680
2017-06-13T17:59:08.910Z,100683
2017-06-13T18:01:37.128Z,100671
2017-06-13T18:04:06.078Z,100674
2017-06-13T18:06:34.322Z,100672
2017-06-13T18:09:02.526Z,100673
2017-06-13T18:11:30.688Z,100681
2017-06-13T18:13:59.238Z,100681
2017-06-13T18:16:27.448Z,100680
2017-06-13T18:18:55.624Z,100669
2017-06-13T18:21:23.786Z,100688
2017-06-13T18:23:52.048Z,100677
2017-06-13T18:26:20.259Z,100687
2017-06-13T18:28:48.427Z,100681
2017-06-13T18:31:16.631Z,100673
2017-06-13T18:33:44.806Z,100676
2017-06-13T18:36:13.017Z,100684
2017-06-13T18:38:41.215Z,100673
2017-06-13T18:41:09.395Z,100679
2017-06-13T18:43:37.562Z,100681
2017-06-13T18:46:05.788Z,100684
2017-06-13T18:48:34.009Z,100679
2017-06-13T18:51:02.323Z,100680
2017-06-13T18:53:30.496Z,100670
2017-06-13T18:55:58.700Z,100684
2017-06-13T18:58:26.882Z,100682
2017-06-13T19:00:55.035Z,100681
2017-06-13T19:03:23.282Z,100681
2017-06-13T19:05:51.597Z,100680
2017-06-13T19:08:19.767Z,100680
2017-06-13T19:10:47.959Z,100680
2017-06-13T19:13:16.181Z,100686
2017-06-13T19:15:44.374Z,100688
2017-06-13T19:18:13.319Z,100684
2017-06-13T19:20:41.512Z,100681
2017-06-13T19:23:09.719Z,100680
2017-06-13T19:25:37.889Z,100682
2017-06-13T19:28:06.106Z,100689
2017-06-13T19:30:34.330Z,100689
2017-06-13T19:33:03.271Z,100701
2017-06-13T19:35:31.605Z,100702
2017-06-13T19:37:59.770Z,100696
2017-06-13T19:40:27.993Z,100708
2017-06-13T19:42:56.249Z,100708
2017-06-13T19:45:24.530Z,100709
2017-06-13T19:47:52.716Z,100721
2017-06-13T19:50:20.911Z,100730
2017-06-13T19:52:50.060Z,100723
2017-06-13T19:55:18.223Z,100722
2017-06-13T19:57:46.419Z,100729
2017-06-13T20:00:14.591Z,100730
2017-06-13T20:02:42.809Z,100733
2017-06-13T20:05:10.999Z,100741
2017-06-13T20:07:39.166Z,100757
2017-06-13T20:10:07.391Z,100771
2017-06-13T20:12:35.562Z,100764
2017-06-13T20:15:03.750Z,100762
2017-06-13T20:17:31.953Z,100759
2017-06-13T20:20:00.170Z,100753
2017-06-13T20:22:28.353Z,100758
2017-06-13T20:24:56.525Z,100775
2017-06-13T20:27:24.741Z,100770
2017-06-13T20:29:52.916Z,100771
2017-06-13T20:32:21.115Z,100772
2017-06-13T20:34:50.051Z,100782
2017-06-13T20:37:18.253Z,100775
2017-06-13T20:39:46.478Z,100774
2017-06-13T20:42:14.684Z,100783
2017-06-13T20:44:42.896Z,100785
2017-06-13T20:47:11.046Z,100789
2017-06-13T20:49:39.287Z,100777
2017-06-13T20:52:07.419Z,100782
2017-06-13T20:54:35.606Z,100792
2017-06-13T20:57:04.576Z,100786
2017-06-13T20:59:32.793Z,100783
2017-06-13T21:02:00.962Z,100785
2017-06-13T21:04:29.298Z,100777
2017-06-13T21:06:57.520Z,100777
2017-06-13T21:09:25.749Z,100768
2017-06-13T21:11:53.975Z,100768
2017-06-13T21:14:22.172Z,100767
2017-06-13T21:16:50.374Z,100767
2017-06-13T21:19:18.555Z,100765
2017-06-13T21:21:47.539Z,100773
2017-06-13T21:24:15.742Z,100778
2017-06-13T21:26:43.918Z,100772
2017-06-13T21:29:12.082Z,100776
2017-06-13T21:31:40.266Z,100781
2017-06-13T21:34:08.432Z,100774
2017-06-13T21:36:36.638Z,100781
2017-06-13T21:39:04.790Z,100774
2017-06-13T21:41:32.921Z,100770
2017-06-13T21:44:01.231Z,100783
2017-06-13T21:46:29.395Z,100782
2017-06-13T21:48:57.598Z,100779
2017-06-13T21:51:25.835Z,100778
2017-06-13T21:53:54.854Z,100774
2017-06-13T21:56:23.039Z,100773
2017-06-13T21:58:51.345Z,100783
2017-06-13T22:01:19.548Z,100778
2017-06-13T22:03:47.741Z,100779
2017-06-13T22:06:16.002Z,100783
2017-06-13T22:08:44.176Z,100783
2017-06-13T22:11:12.360Z,100779
2017-06-13T22:13:40.557Z,100786
2017-06-13T22:16:08.765Z,100793
2017-06-13T22:18:36.920Z,100792
2017-06-13T22:21:05.084Z,100794
2017-06-13T22:23:33.314Z,100802
2017-06-13T22:26:01.481Z,100809
2017-06-13T22:28:29.667Z,100805
2017-06-13T22:30:57.877Z,100809
2017-06-13T22:33:26.079Z,100808
2017-06-13T22:35:54.279Z,100806
2017-06-13T22:38:22.685Z,100804
2017-06-13T22:40:50.872Z,100810
2017-06-13T22:43:19.079Z,100817
2017-06-13T22:45:47.328Z,100814
2017-06-13T22:48:15.547Z,100806
2017-06-13T22:50:43.727Z,100812
2017-06-13T22:53:12.114Z,100812
2017-06-13T22:55:40.306Z,100805
2017-06-13T22:58:08.507Z,100797
2017-06-13T23:00:36.737Z,100796
2017-06-13T23:03:04.931Z,100791
2017-06-13T23:05:33.160Z,100785
2017-06-13T23:08:01.313Z,100781
2017-06-13T23:10:29.471Z,100784
2017-06-13T23:12:57.690Z,100786
2017-06-13T23:15:26.647Z,100784
2017-06-13T23:17:54.840Z,100782
2017-06-13T23:20:23.010Z,100776
2017-06-13T23:22:51.190Z,100778
2017-06-13T23:25:19.410Z,100773
2017-06-13T23:27:47.577Z,100765
2017-06-13T23:30:15.767Z,100769
2017-06-13T23:32:43.977Z,100773
2017-06-13T23:35:12.161Z,100781
2017-06-13T23:37:40.345Z,100780
2017-06-13T23:40:08.542Z,100785
2017-06-13T23:42:36.702Z,100779
2017-06-13T23:45:05.016Z,100769
2017-06-13T23:47:33.149Z,100770
2017-06-13T23:50:01.314Z,100771
2017-06-13T23:52:29.497Z,100772
2017-06-13T23:54:57.698Z,100783
2017-06-13T23:57:25.846Z,100780
2017-06-13T23:59:54.059Z,100770
